createdAt,value
2022-12-31T00:00:41.319Z,96296.13
2022-12-31T00:03:10.526Z,96300.09
2022-12-31T00:05:40.331Z,96302.19
2022-12-31T00:08:08.685Z,96299.69
2022-12-31T00:10:41.615Z,96304.00
2022-12-31T00:13:10.677Z,96291.38
2022-12-31T00:15:39.393Z,96289.28
2022-12-31T00:18:08.234Z,96292.47
2022-12-31T00:20:42.493Z,96288.31
2022-12-31T00:23:11.482Z,96286.28
2022-12-31T00:25:39.936Z,96282.91
2022-12-31T00:28:08.231Z,96285.06
2022-12-31T00:30:36.529Z,96278.72
2022-12-31T00:33:05.130Z,96264.09
2022-12-31T00:35:34.951Z,96283.56
2022-12-31T00:38:04.576Z,96286.88
2022-12-31T00:40:32.881Z,96289.03
2022-12-31T00:43:01.207Z,96304.22
2022-12-31T00:45:29.558Z,96301.59
2022-12-31T00:47:57.958Z,96296.69
2022-12-31T00:50:26.476Z,96303.22
2022-12-31T00:52:54.712Z,96307.66
2022-12-31T00:55:24.860Z,96313.78
2022-12-31T00:57:53.117Z,96321.78
2022-12-31T01:00:21.495Z,96319.63
2022-12-31T01:02:49.885Z,96315.53
2022-12-31T01:05:18.348Z,96329.78
2022-12-31T01:07:46.638Z,96318.34
2022-12-31T01:10:35.309Z,96322.16
2022-12-31T01:13:05.006Z,96332.53
2022-12-31T01:15:34.779Z,96328.56
2022-12-31T01:18:03.618Z,96338.19
2022-12-31T01:20:37.086Z,96339.28
2022-12-31T01:23:05.475Z,96358.59
2022-12-31T01:25:36.786Z,96347.25
2022-12-31T01:28:08.089Z,96341.22
2022-12-31T01:30:39.838Z,96371.66
2022-12-31T01:33:08.245Z,96377.09
2022-12-31T01:35:37.508Z,96378.03
2022-12-31T01:38:06.522Z,96374.59
2022-12-31T01:40:38.099Z,96381.47
2022-12-31T01:43:16.905Z,96380.69
2022-12-31T01:45:46.233Z,96380.31
2022-12-31T01:48:18.076Z,96391.25
2022-12-31T01:50:48.516Z,96382.28
2022-12-31T01:53:18.465Z,96381.50
2022-12-31T01:55:50.514Z,96379.84
2022-12-31T01:58:24.654Z,96386.06
2022-12-31T02:00:53.766Z,96382.91
2022-12-31T02:03:23.698Z,96380.19
2022-12-31T02:05:55.860Z,96383.53
2022-12-31T02:08:24.813Z,96381.88
2022-12-31T02:10:54.564Z,96387.75
2022-12-31T02:13:24.461Z,96386.69
2022-12-31T02:15:58.644Z,96369.44
2022-12-31T02:18:31.414Z,96376.13
2022-12-31T02:21:20.078Z,96379.66
2022-12-31T02:24:31.452Z,96380.75
2022-12-31T02:27:03.164Z,96376.19
2022-12-31T02:29:54.672Z,96378.50
2022-12-31T02:32:26.103Z,96378.50
2022-12-31T02:34:58.600Z,96383.28
2022-12-31T02:37:28.543Z,96381.00
2022-12-31T02:39:57.273Z,96384.22
2022-12-31T02:42:25.612Z,96381.56
2022-12-31T02:44:55.915Z,96385.03
2022-12-31T02:47:32.835Z,96382.72
2022-12-31T02:50:12.649Z,96384.75
2022-12-31T02:52:47.649Z,96392.41
2022-12-31T02:55:20.281Z,96393.66
2022-12-31T02:57:52.080Z,96390.78
2022-12-31T03:00:40.049Z,96397.22
2022-12-31T03:03:09.503Z,96396.34
2022-12-31T03:05:40.994Z,96391.44
2022-12-31T03:08:09.556Z,96398.16
2022-12-31T03:10:39.105Z,96406.72
2022-12-31T03:13:06.520Z,96408.09
2022-12-31T03:15:36.392Z,96404.06
2022-12-31T03:18:06.894Z,96410.91
2022-12-31T03:20:54.922Z,96407.63
2022-12-31T03:23:26.944Z,96412.78
2022-12-31T03:25:56.152Z,96414.88
2022-12-31T03:28:26.794Z,96416.81
2022-12-31T03:30:59.371Z,96423.19
2022-12-31T03:33:31.892Z,96421.53
2022-12-31T03:36:00.263Z,96424.03
2022-12-31T03:38:29.343Z,96419.63
2022-12-31T03:40:57.817Z,96415.88
2022-12-31T03:43:26.485Z,96421.38
2022-12-31T03:45:59.823Z,96426.25
2022-12-31T03:48:28.404Z,96430.78
2022-12-31T03:50:57.158Z,96431.88
2022-12-31T03:53:25.476Z,96438.66
2022-12-31T03:55:54.836Z,96439.53
2022-12-31T03:58:23.794Z,96440.47
2022-12-31T04:00:52.742Z,96437.78
2022-12-31T04:03:22.666Z,96436.34
2022-12-31T04:05:55.592Z,96442.53
2022-12-31T04:08:24.210Z,96448.09
2022-12-31T04:10:53.471Z,96444.47
2022-12-31T04:13:21.742Z,96454.16
2022-12-31T04:15:51.873Z,96451.72
2022-12-31T04:18:20.468Z,96466.53
2022-12-31T04:20:50.079Z,96460.88
2022-12-31T04:23:19.103Z,96465.22
2022-12-31T04:25:47.434Z,96453.56
2022-12-31T04:28:16.035Z,96450.53
2022-12-31T04:30:44.553Z,96460.53
2022-12-31T04:33:13.375Z,96461.72
2022-12-31T04:35:41.709Z,96469.75
2022-12-31T04:38:11.374Z,96473.66
2022-12-31T04:40:59.669Z,96468.84
2022-12-31T04:43:28.069Z,96463.41
2022-12-31T04:45:56.393Z,96463.38
2022-12-31T04:48:24.717Z,96470.22
2022-12-31T04:50:53.221Z,96475.78
2022-12-31T04:53:24.606Z,96469.16
2022-12-31T04:55:53.021Z,96466.06
2022-12-31T04:58:21.655Z,96475.34
2022-12-31T05:00:51.570Z,96480.47
2022-12-31T05:03:20.111Z,96476.78
2022-12-31T05:05:50.060Z,96479.69
2022-12-31T05:08:19.166Z,96486.06
2022-12-31T05:10:49.900Z,96482.38
2022-12-31T05:13:18.311Z,96489.56
2022-12-31T05:15:47.410Z,96491.59
2022-12-31T05:18:16.078Z,96498.00
2022-12-31T05:20:44.527Z,96492.41
2022-12-31T05:23:13.377Z,96484.63
2022-12-31T05:25:42.808Z,96493.25
2022-12-31T05:28:13.086Z,96484.59
2022-12-31T05:30:41.722Z,96491.81
2022-12-31T05:33:10.176Z,96502.72
2022-12-31T05:35:38.512Z,96501.88
2022-12-31T05:38:06.923Z,96506.25
2022-12-31T05:40:35.368Z,96498.34
2022-12-31T05:43:03.691Z,96515.72
2022-12-31T05:45:33.451Z,96507.94
2022-12-31T05:48:01.871Z,96510.03
2022-12-31T05:50:30.195Z,96512.41
2022-12-31T05:52:58.567Z,96509.13
2022-12-31T05:55:26.910Z,96509.75
2022-12-31T05:57:55.242Z,96502.94
2022-12-31T06:00:23.868Z,96502.34
2022-12-31T06:02:53.681Z,96508.56
2022-12-31T06:05:26.064Z,96516.78
2022-12-31T06:07:54.812Z,96506.25
2022-12-31T06:10:23.059Z,96513.03
2022-12-31T06:12:51.269Z,96509.56
2022-12-31T06:15:19.537Z,96515.72
2022-12-31T06:17:47.895Z,96514.94
2022-12-31T06:20:17.720Z,96523.38
2022-12-31T06:22:45.966Z,96524.81
2022-12-31T06:25:14.362Z,96530.16
2022-12-31T06:27:42.608Z,96525.41
2022-12-31T06:30:12.495Z,96532.00
2022-12-31T06:32:40.890Z,96541.94
2022-12-31T06:35:09.495Z,96534.09
2022-12-31T06:37:39.159Z,96524.00
2022-12-31T06:40:08.912Z,96528.38
2022-12-31T06:42:37.203Z,96530.41
2022-12-31T06:45:06.665Z,96526.44
2022-12-31T06:47:35.094Z,96536.38
2022-12-31T06:50:03.330Z,96538.88
2022-12-31T06:52:31.611Z,96537.81
2022-12-31T06:55:02.261Z,96533.06
2022-12-31T06:57:31.142Z,96537.38
2022-12-31T07:00:00.132Z,96553.72
2022-12-31T07:02:39.499Z,96548.94
2022-12-31T07:05:19.986Z,96555.16
2022-12-31T07:07:53.413Z,96555.56
2022-12-31T07:10:30.078Z,96553.72
2022-12-31T07:13:11.479Z,96564.44
2022-12-31T07:15:49.674Z,96561.13
2022-12-31T07:18:25.557Z,96565.25
2022-12-31T07:20:54.531Z,96562.94
2022-12-31T07:23:23.468Z,96562.53
2022-12-31T07:25:57.277Z,96553.47
2022-12-31T07:28:36.840Z,96560.31
2022-12-31T07:31:09.197Z,96568.13
2022-12-31T07:33:54.165Z,96568.13
2022-12-31T07:36:31.623Z,96577.63
2022-12-31T07:39:04.496Z,96585.03
2022-12-31T07:41:43.865Z,96587.31
2022-12-31T07:44:19.369Z,96590.63
2022-12-31T07:46:55.396Z,96589.75
2022-12-31T07:49:24.656Z,96587.69
2022-12-31T07:51:53.538Z,96589.16
2022-12-31T07:54:22.211Z,96596.00
2022-12-31T07:56:52.100Z,96602.34
2022-12-31T07:59:33.599Z,96608.34
2022-12-31T08:02:04.464Z,96610.22
2022-12-31T08:04:37.728Z,96606.25
2022-12-31T08:07:15.123Z,96610.00
2022-12-31T08:09:48.030Z,96621.56
2022-12-31T08:12:18.312Z,96624.25
2022-12-31T08:14:48.473Z,96618.84
2022-12-31T08:17:18.658Z,96615.16
2022-12-31T08:19:47.610Z,96612.06
2022-12-31T08:22:40.507Z,96618.25
2022-12-31T08:25:15.822Z,96619.66
2022-12-31T08:27:52.066Z,96617.63
2022-12-31T08:30:21.815Z,96621.56
2022-12-31T08:32:53.092Z,96628.75
2022-12-31T08:35:30.811Z,96617.03
2022-12-31T08:38:04.178Z,96621.97
2022-12-31T08:40:44.899Z,96621.31
2022-12-31T08:43:23.375Z,96615.16
2022-12-31T08:45:52.975Z,96609.13
2022-12-31T08:48:27.587Z,96614.59
2022-12-31T08:50:56.632Z,96628.97
2022-12-31T08:53:25.724Z,96625.78
2022-12-31T08:55:57.964Z,96629.06
2022-12-31T08:58:37.685Z,96635.56
2022-12-31T09:01:07.146Z,96637.81
2022-12-31T09:03:55.803Z,96635.78
2022-12-31T09:08:59.895Z,96636.81
2022-12-31T09:11:32.259Z,96625.66
2022-12-31T09:14:33.048Z,96631.25
2022-12-31T09:17:04.397Z,96636.19
2022-12-31T09:19:32.727Z,96633.50
2022-12-31T09:22:01.412Z,96631.22
2022-12-31T09:24:30.059Z,96640.72
2022-12-31T09:27:06.445Z,96632.47
2022-12-31T09:29:49.690Z,96639.28
2022-12-31T09:32:24.604Z,96639.91
2022-12-31T09:34:56.367Z,96629.81
2022-12-31T09:37:37.435Z,96627.69
2022-12-31T09:40:32.222Z,96620.22
2022-12-31T09:43:59.052Z,96623.56
2022-12-31T09:47:01.656Z,96626.59
2022-12-31T09:50:07.906Z,96623.72
2022-12-31T09:52:48.659Z,96630.56
2022-12-31T09:55:29.267Z,96625.69
2022-12-31T09:57:59.606Z,96633.44
2022-12-31T10:00:34.444Z,96632.22
2022-12-31T10:03:24.377Z,96635.09
2022-12-31T10:06:05.473Z,96632.13
2022-12-31T10:08:43.450Z,96630.06
2022-12-31T10:11:17.642Z,96625.91
2022-12-31T10:13:58.568Z,96624.44
2022-12-31T10:16:39.528Z,96615.34
2022-12-31T10:19:41.241Z,96611.78
2022-12-31T10:22:28.072Z,96612.41
2022-12-31T10:25:15.820Z,96611.94
2022-12-31T10:27:50.994Z,96605.53
2022-12-31T10:30:21.099Z,96610.94
2022-12-31T10:33:00.487Z,96612.56
2022-12-31T10:35:40.384Z,96615.91
2022-12-31T10:38:20.430Z,96619.63
2022-12-31T10:41:18.433Z,96604.09
2022-12-31T10:44:05.235Z,96595.16
2022-12-31T10:46:56.690Z,96597.00
2022-12-31T10:49:55.178Z,96592.84
2022-12-31T10:52:51.822Z,96600.06
2022-12-31T10:56:05.964Z,96592.25
2022-12-31T10:59:09.963Z,96592.38
2022-12-31T11:01:47.392Z,96593.75
2022-12-31T11:04:41.579Z,96606.25
2022-12-31T11:07:46.921Z,96598.50
2022-12-31T11:10:36.177Z,96604.50
2022-12-31T11:13:26.374Z,96593.25
2022-12-31T11:16:16.829Z,96595.50
2022-12-31T11:18:48.319Z,96599.06
2022-12-31T11:21:28.050Z,96602.72
2022-12-31T11:24:01.559Z,96593.97
2022-12-31T11:26:41.918Z,96594.16
2022-12-31T11:29:19.962Z,96601.91
2022-12-31T11:32:07.917Z,96599.94
2022-12-31T11:35:12.357Z,96589.47
2022-12-31T11:37:45.944Z,96582.44
2022-12-31T11:40:26.951Z,96582.38
2022-12-31T11:42:59.037Z,96578.84
2022-12-31T11:45:40.221Z,96576.13
2022-12-31T11:48:30.024Z,96577.22
2022-12-31T11:51:11.961Z,96567.94
2022-12-31T11:54:01.663Z,96576.25
2022-12-31T11:56:33.819Z,96572.88
2022-12-31T11:59:12.102Z,96571.16
2022-12-31T12:01:52.429Z,96576.69
2022-12-31T12:04:22.290Z,96577.06
2022-12-31T12:06:50.793Z,96577.69
2022-12-31T12:09:26.532Z,96571.13
2022-12-31T12:11:59.488Z,96569.91
2022-12-31T12:14:32.845Z,96569.97
2022-12-31T12:17:05.046Z,96572.31
2022-12-31T12:19:36.383Z,96569.13
2022-12-31T12:22:11.573Z,96569.19
2022-12-31T12:24:39.935Z,96566.13
2022-12-31T12:27:21.983Z,96566.19
2022-12-31T12:29:50.382Z,96571.81
2022-12-31T12:32:20.383Z,96569.38
2022-12-31T12:34:50.375Z,96567.56
2022-12-31T12:37:28.112Z,96567.31
2022-12-31T12:39:58.161Z,96556.09
2022-12-31T12:42:26.540Z,96557.97
2022-12-31T12:45:07.443Z,96561.50
2022-12-31T12:47:35.938Z,96554.66
2022-12-31T12:50:06.228Z,96552.47
2022-12-31T12:52:48.894Z,96560.75
2022-12-31T12:55:21.468Z,96564.72
2022-12-31T12:57:55.964Z,96566.16
2022-12-31T13:00:30.038Z,96560.63
2022-12-31T13:03:31.876Z,96550.41
2022-12-31T13:06:15.413Z,96550.78
2022-12-31T13:08:56.323Z,96550.31
2022-12-31T13:11:37.120Z,96553.06
2022-12-31T13:14:14.679Z,96552.84
2022-12-31T13:16:48.593Z,96566.81
2022-12-31T13:19:21.319Z,96555.38
2022-12-31T13:21:56.608Z,96551.31
2022-12-31T13:24:36.775Z,96549.78
2022-12-31T13:27:11.158Z,96545.47
2022-12-31T13:29:40.968Z,96541.25
2022-12-31T13:32:10.966Z,96532.47
2022-12-31T13:34:41.675Z,96530.88
2022-12-31T13:37:21.322Z,96529.50
2022-12-31T13:39:58.241Z,96535.19
2022-12-31T13:42:31.996Z,96531.41
2022-12-31T13:45:02.557Z,96530.34
2022-12-31T13:47:34.846Z,96524.56
2022-12-31T13:50:14.447Z,96525.66
2022-12-31T13:52:49.543Z,96541.00
2022-12-31T13:55:22.154Z,96536.41
2022-12-31T13:57:52.513Z,96535.00
2022-12-31T14:00:24.082Z,96544.34
2022-12-31T14:02:59.763Z,96546.75
2022-12-31T14:05:32.165Z,96539.88
2022-12-31T14:08:03.029Z,96548.00
2022-12-31T14:10:42.313Z,96552.13
2022-12-31T14:13:22.519Z,96555.34
2022-12-31T14:16:01.405Z,96543.38
2022-12-31T14:18:35.920Z,96549.19
2022-12-31T14:21:08.811Z,96561.66
2022-12-31T14:23:44.254Z,96556.34
2022-12-31T14:26:21.142Z,96561.88
2022-12-31T14:28:57.368Z,96557.94
2022-12-31T14:31:33.170Z,96554.78
2022-12-31T14:34:06.423Z,96569.50
2022-12-31T14:36:43.796Z,96580.66
2022-12-31T14:39:30.785Z,96586.25
2022-12-31T14:42:17.072Z,96587.91
2022-12-31T14:44:55.875Z,96589.78
2022-12-31T14:47:32.134Z,96592.84
2022-12-31T14:50:06.521Z,96589.38
2022-12-31T14:52:36.959Z,96588.34
2022-12-31T14:55:27.764Z,96598.25
2022-12-31T15:00:53.845Z,96584.56
2022-12-31T15:03:27.727Z,96586.22
2022-12-31T15:06:00.322Z,96583.09
2022-12-31T15:08:38.995Z,96584.72
2022-12-31T15:11:22.756Z,96577.69
2022-12-31T15:14:04.778Z,96580.97
2022-12-31T15:16:45.047Z,96582.00
2022-12-31T15:19:43.443Z,96583.41
2022-12-31T15:22:22.424Z,96584.63
2022-12-31T15:24:50.880Z,96595.78
2022-12-31T15:27:32.550Z,96592.91
2022-12-31T15:30:01.408Z,96588.59
2022-12-31T15:32:33.568Z,96591.75
2022-12-31T15:35:02.973Z,96587.47
2022-12-31T15:37:33.531Z,96591.97
2022-12-31T15:40:18.715Z,96597.00
2022-12-31T15:42:50.628Z,96600.00
2022-12-31T15:45:22.567Z,96604.19
2022-12-31T15:47:55.775Z,96602.91
2022-12-31T15:50:25.865Z,96607.72
2022-12-31T15:52:56.485Z,96602.09
2022-12-31T15:55:31.291Z,96598.47
2022-12-31T15:58:06.595Z,96597.78
2022-12-31T16:00:48.982Z,96605.22
2022-12-31T16:03:23.744Z,96599.97
2022-12-31T16:05:54.524Z,96603.44
2022-12-31T16:08:26.929Z,96606.50
2022-12-31T16:10:57.062Z,96602.41
2022-12-31T16:13:29.424Z,96618.00
2022-12-31T16:16:04.432Z,96616.03
2022-12-31T16:18:40.275Z,96612.28
2022-12-31T16:21:26.071Z,96617.31
2022-12-31T16:23:56.763Z,96612.09
2022-12-31T16:26:29.915Z,96608.50
2022-12-31T16:29:01.426Z,96611.81
2022-12-31T16:31:31.264Z,96603.72
2022-12-31T16:34:08.990Z,96615.69
2022-12-31T16:36:38.540Z,96614.03
2022-12-31T16:39:28.245Z,96609.53
2022-12-31T16:42:11.676Z,96612.66
2022-12-31T16:44:42.721Z,96612.28
2022-12-31T16:47:18.693Z,96618.25
2022-12-31T16:49:50.144Z,96617.53
2022-12-31T16:52:39.401Z,96615.69
2022-12-31T16:55:10.275Z,96612.00
2022-12-31T16:57:39.550Z,96615.94
2022-12-31T17:00:17.482Z,96598.13
2022-12-31T17:02:50.677Z,96603.09
2022-12-31T17:05:21.302Z,96596.41
2022-12-31T17:07:50.482Z,96599.47
2022-12-31T17:10:24.509Z,96596.66
2022-12-31T17:15:47.751Z,96599.06
2022-12-31T17:18:20.487Z,96600.59
2022-12-31T17:20:50.769Z,96606.28
2022-12-31T17:23:25.912Z,96604.66
2022-12-31T17:26:03.478Z,96596.94
2022-12-31T17:28:43.274Z,96599.41
2022-12-31T17:31:34.775Z,96602.91
2022-12-31T17:34:19.355Z,96606.28
2022-12-31T17:36:58.472Z,96609.81
2022-12-31T17:39:29.432Z,96611.16
2022-12-31T17:41:58.344Z,96609.31
2022-12-31T17:44:28.536Z,96618.88
2022-12-31T17:46:58.885Z,96609.22
2022-12-31T17:49:29.704Z,96613.00
2022-12-31T17:51:58.534Z,96609.09
2022-12-31T17:54:26.863Z,96605.09
2022-12-31T17:56:55.260Z,96605.38
2022-12-31T17:59:29.587Z,96609.69
2022-12-31T18:02:02.307Z,96612.75
2022-12-31T18:04:30.589Z,96622.81
2022-12-31T18:06:58.877Z,96616.91
2022-12-31T18:09:27.133Z,96624.03
2022-12-31T18:11:59.693Z,96614.31
2022-12-31T18:14:29.881Z,96606.28
2022-12-31T18:16:58.255Z,96610.19
2022-12-31T18:20:02.821Z,96610.34
2022-12-31T18:22:16.850Z,96612.66
2022-12-31T18:24:45.501Z,96607.88
2022-12-31T18:27:18.136Z,96607.16
2022-12-31T18:29:46.696Z,96601.75
2022-12-31T18:32:22.779Z,96604.19
2022-12-31T18:34:53.011Z,96602.81
2022-12-31T18:37:22.518Z,96592.72
2022-12-31T18:39:51.144Z,96600.47
2022-12-31T18:42:20.143Z,96601.00
2022-12-31T18:44:48.416Z,96614.84
2022-12-31T18:47:19.005Z,96627.03
2022-12-31T18:49:48.543Z,96618.88
2022-12-31T18:52:19.878Z,96620.66
2022-12-31T18:54:48.420Z,96633.25
2022-12-31T18:57:17.228Z,96645.28
2022-12-31T18:59:45.524Z,96651.25
2022-12-31T19:02:16.564Z,96648.88
2022-12-31T19:04:44.956Z,96649.81
2022-12-31T19:07:13.341Z,96655.94
2022-12-31T19:09:45.587Z,96662.94
2022-12-31T19:12:15.646Z,96672.44
2022-12-31T19:14:45.430Z,96661.84
2022-12-31T19:17:13.664Z,96665.16
2022-12-31T19:19:42.035Z,96666.81
2022-12-31T19:22:14.808Z,96665.63
2022-12-31T19:24:44.494Z,96669.44
2022-12-31T19:27:12.854Z,96667.28
2022-12-31T19:29:41.223Z,96677.22
2022-12-31T19:32:09.532Z,96675.25
2022-12-31T19:34:37.905Z,96678.88
2022-12-31T19:37:06.109Z,96670.38
2022-12-31T19:39:34.340Z,96675.72
2022-12-31T19:42:04.056Z,96678.03
2022-12-31T19:44:32.360Z,96682.69
2022-12-31T19:47:00.624Z,96673.72
2022-12-31T19:49:28.862Z,96686.19
2022-12-31T19:51:57.277Z,96675.25
2022-12-31T19:54:25.690Z,96691.88
2022-12-31T19:56:54.037Z,96696.84
2022-12-31T19:59:23.600Z,96695.69
2022-12-31T20:01:51.966Z,96699.50
2022-12-31T20:04:21.607Z,96693.38
2022-12-31T20:06:49.871Z,96702.34
2022-12-31T20:09:18.108Z,96702.34
2022-12-31T20:11:46.537Z,96699.72
2022-12-31T20:14:14.874Z,96696.88
2022-12-31T20:16:44.542Z,96703.19
2022-12-31T20:19:12.905Z,96707.22
2022-12-31T20:21:42.031Z,96704.75
2022-12-31T20:24:10.281Z,96713.59
2022-12-31T20:26:38.561Z,96720.13
2022-12-31T20:29:06.848Z,96729.78
2022-12-31T20:31:35.120Z,96730.25
2022-12-31T20:34:04.739Z,96729.91
2022-12-31T20:36:33.014Z,96725.09
2022-12-31T20:39:01.319Z,96725.22
2022-12-31T20:41:32.101Z,96725.84
2022-12-31T20:44:00.905Z,96729.66
2022-12-31T20:46:31.011Z,96721.47
2022-12-31T20:49:00.800Z,96716.16
2022-12-31T20:51:32.167Z,96708.59
2022-12-31T20:54:02.683Z,96713.34
2022-12-31T20:56:32.870Z,96719.97
2022-12-31T20:59:01.405Z,96724.19
2022-12-31T21:01:48.155Z,96715.75
2022-12-31T21:04:18.507Z,96722.69
2022-12-31T21:06:48.366Z,96714.56
2022-12-31T21:09:16.654Z,96720.22
2022-12-31T21:12:02.656Z,96714.09
2022-12-31T21:14:30.954Z,96719.03
2022-12-31T21:16:59.219Z,96707.06
2022-12-31T21:19:27.555Z,96707.34
2022-12-31T21:21:57.184Z,96709.72
2022-12-31T21:24:25.456Z,96709.56
2022-12-31T21:26:56.318Z,96701.16
2022-12-31T21:29:24.619Z,96708.28
2022-12-31T21:31:52.955Z,96701.94
2022-12-31T21:34:21.283Z,96699.50
2022-12-31T21:36:49.618Z,96698.34
2022-12-31T21:39:19.182Z,96701.16
2022-12-31T21:41:53.552Z,96707.50
2022-12-31T21:44:23.781Z,96705.69
2022-12-31T21:47:33.095Z,96707.91
2022-12-31T21:49:44.811Z,96711.25
2022-12-31T21:52:30.537Z,96716.38
2022-12-31T21:55:19.363Z,96725.16
2022-12-31T22:00:55.697Z,96726.59
2022-12-31T22:03:28.201Z,96730.22
2022-12-31T22:05:59.585Z,96728.50
2022-12-31T22:08:28.973Z,96713.94
2022-12-31T22:10:58.681Z,96722.91
2022-12-31T22:13:27.080Z,96713.47
2022-12-31T22:16:03.849Z,96711.78
2022-12-31T22:18:35.665Z,96707.84
2022-12-31T22:21:07.676Z,96701.06
2022-12-31T22:23:38.421Z,96700.22
2022-12-31T22:26:09.562Z,96714.97
2022-12-31T22:28:40.407Z,96702.06
2022-12-31T22:31:09.938Z,96705.59
2022-12-31T22:33:38.211Z,96702.47
2022-12-31T22:36:08.460Z,96717.16
2022-12-31T22:38:36.765Z,96717.34
2022-12-31T22:41:08.700Z,96708.88
2022-12-31T22:43:38.864Z,96712.53
2022-12-31T22:46:09.067Z,96707.38
2022-12-31T22:48:37.789Z,96719.63
2022-12-31T22:51:06.520Z,96715.81
2022-12-31T22:53:34.871Z,96705.22
2022-12-31T22:56:03.230Z,96692.91
2022-12-31T22:58:32.866Z,96699.59
2022-12-31T23:01:01.247Z,96710.69
2022-12-31T23:03:29.586Z,96715.84
2022-12-31T23:05:57.847Z,96712.34
2022-12-31T23:08:26.084Z,96712.84
2022-12-31T23:11:00.023Z,96708.69
2022-12-31T23:13:50.597Z,96710.34
2022-12-31T23:16:38.472Z,96700.41
2022-12-31T23:19:24.345Z,96696.56
2022-12-31T23:22:10.427Z,96699.91
2022-12-31T23:24:39.132Z,96699.91
2022-12-31T23:27:08.341Z,96707.50
2022-12-31T23:29:45.557Z,96716.91
2022-12-31T23:32:16.540Z,96707.94
2022-12-31T23:34:45.726Z,96710.94
2022-12-31T23:37:14.305Z,96716.47
2022-12-31T23:39:43.101Z,96716.38
2022-12-31T23:42:11.390Z,96712.41
2022-12-31T23:44:39.649Z,96708.72
2022-12-31T23:47:07.989Z,96717.56
2022-12-31T23:49:37.709Z,96713.28
2022-12-31T23:52:05.988Z,96716.97
2022-12-31T23:54:35.155Z,96707.50
2022-12-31T23:57:03.844Z,96722.25
2022-12-31T23:59:32.186Z,96719.72
